Buntingford, United Kingdom
Current Conditions -  °F | °C
As of 9:20 AM on Wednesday 28 Jan 2015 (Local Time) from EGSS Reporting Station
Light Rain Light Rain  
Wind Chill: 41°   Ceiling: 600
Heat Index: 48°   Visibility: 3mi
Dew Point: 46°   Wind: 23mph
Humidity: 93%   Direction: 220°SW
Pressure: 29.56"   Gusts: NA
Location:  51.95°N, 0.02°W
Report Text: EGSS 280920Z 22020KT 5000 -RA OVC006 09/08 Q1001
Loading
Personal Weather Stations






























Interactive Weather Map New forecast layout! Learn more

10-Day Weather Forecast

Advertisements
Track Severe Weather on mobile